sensor_id;sensor_type;location;lat;lon;timestamp;temperature;humidity
9450;DHT22;4763;48.370;10.874;2023-07-20T00:02:22;21.30;99.90
9450;DHT22;4763;48.370;10.874;2023-07-20T00:04:49;21.40;99.90
9450;DHT22;4763;48.370;10.874;2023-07-20T00:07:17;21.30;99.90
9450;DHT22;4763;48.370;10.874;2023-07-20T00:09:45;21.30;99.90
9450;DHT22;4763;48.370;10.874;2023-07-20T00:12:13;21.30;99.90
9450;DHT22;4763;48.370;10.874;2023-07-20T00:14:40;21.30;99.90
9450;DHT22;4763;48.370;10.874;2023-07-20T00:17:08;21.30;99.90
9450;DHT22;4763;48.370;10.874;2023-07-20T00:19:35;21.20;99.90
9450;DHT22;4763;48.370;10.874;2023-07-20T00:22:02;21.10;99.90
9450;DHT22;4763;48.370;10.874;2023-07-20T00:24:30;21.10;99.90
9450;DHT22;4763;48.370;10.874;2023-07-20T00:26:59;21.10;99.90
9450;DHT22;4763;48.370;10.874;2023-07-20T00:29:28;21.10;99.90
9450;DHT22;4763;48.370;10.874;2023-07-20T00:31:55;21.10;99.90
9450;DHT22;4763;48.370;10.874;2023-07-20T00:34:21;21.00;99.90
9450;DHT22;4763;48.370;10.874;2023-07-20T00:36:48;21.00;99.90
9450;DHT22;4763;48.370;10.874;2023-07-20T00:39:15;20.90;99.90
9450;DHT22;4763;48.370;10.874;2023-07-20T00:41:42;20.90;99.90
9450;DHT22;4763;48.370;10.874;2023-07-20T00:44:10;20.90;99.90
9450;DHT22;4763;48.370;10.874;2023-07-20T00:46:37;20.90;99.90
9450;DHT22;4763;48.370;10.874;2023-07-20T00:49:04;20.80;99.90
9450;DHT22;4763;48.370;10.874;2023-07-20T00:51:31;20.80;99.90
9450;DHT22;4763;48.370;10.874;2023-07-20T00:53:58;20.80;99.90
9450;DHT22;4763;48.370;10.874;2023-07-20T00:56:25;20.80;99.90
9450;DHT22;4763;48.370;10.874;2023-07-20T00:58:52;20.80;99.90
9450;DHT22;4763;48.370;10.874;2023-07-20T01:01:21;20.70;99.90
9450;DHT22;4763;48.370;10.874;2023-07-20T01:03:48;20.70;99.90
9450;DHT22;4763;48.370;10.874;2023-07-20T01:06:23;20.70;99.90
9450;DHT22;4763;48.370;10.874;2023-07-20T01:09:00;20.60;99.90
9450;DHT22;4763;48.370;10.874;2023-07-20T01:11:32;20.60;99.90
9450;DHT22;4763;48.370;10.874;2023-07-20T01:14:02;20.60;99.90
9450;DHT22;4763;48.370;10.874;2023-07-20T01:16:32;20.60;99.90
9450;DHT22;4763;48.370;10.874;2023-07-20T01:18:59;20.60;99.90
9450;DHT22;4763;48.370;10.874;2023-07-20T01:21:29;20.60;99.90
9450;DHT22;4763;48.370;10.874;2023-07-20T01:24:11;20.60;99.90
9450;DHT22;4763;48.370;10.874;2023-07-20T01:30:03;20.50;99.90
9450;DHT22;4763;48.370;10.874;2023-07-20T01:32:36;20.40;99.90
9450;DHT22;4763;48.370;10.874;2023-07-20T01:35:06;20.50;99.90
9450;DHT22;4763;48.370;10.874;2023-07-20T01:37:34;20.40;99.90
9450;DHT22;4763;48.370;10.874;2023-07-20T01:40:01;20.40;99.90
9450;DHT22;4763;48.370;10.874;2023-07-20T01:42:29;20.40;99.90
9450;DHT22;4763;48.370;10.874;2023-07-20T01:44:56;20.30;99.90
9450;DHT22;4763;48.370;10.874;2023-07-20T01:47:23;20.30;99.90
9450;DHT22;4763;48.370;10.874;2023-07-20T01:49:51;20.20;99.90
9450;DHT22;4763;48.370;10.874;2023-07-20T01:52:18;20.20;99.90
9450;DHT22;4763;48.370;10.874;2023-07-20T01:54:44;20.20;99.90
9450;DHT22;4763;48.370;10.874;2023-07-20T01:57:11;20.20;99.90
9450;DHT22;4763;48.370;10.874;2023-07-20T01:59:38;20.20;99.90
9450;DHT22;4763;48.370;10.874;2023-07-20T02:02:04;20.10;99.90
9450;DHT22;4763;48.370;10.874;2023-07-20T02:04:31;20.10;99.90
9450;DHT22;4763;48.370;10.874;2023-07-20T02:06:59;20.10;99.90
9450;DHT22;4763;48.370;10.874;2023-07-20T02:09:26;20.10;99.90
9450;DHT22;4763;48.370;10.874;2023-07-20T02:11:53;20.00;99.90
9450;DHT22;4763;48.370;10.874;2023-07-20T02:14:19;20.10;99.90
9450;DHT22;4763;48.370;10.874;2023-07-20T02:16:47;20.00;99.90
9450;DHT22;4763;48.370;10.874;2023-07-20T02:19:17;20.00;99.90
9450;DHT22;4763;48.370;10.874;2023-07-20T02:21:44;19.90;99.90
9450;DHT22;4763;48.370;10.874;2023-07-20T02:24:13;19.90;99.90
9450;DHT22;4763;48.370;10.874;2023-07-20T02:26:39;19.90;99.90
9450;DHT22;4763;48.370;10.874;2023-07-20T02:29:08;19.90;99.90
9450;DHT22;4763;48.370;10.874;2023-07-20T02:31:36;19.80;99.90
9450;DHT22;4763;48.370;10.874;2023-07-20T02:34:04;19.80;99.90
9450;DHT22;4763;48.370;10.874;2023-07-20T02:36:34;19.80;99.90
9450;DHT22;4763;48.370;10.874;2023-07-20T02:39:00;19.70;99.90
9450;DHT22;4763;48.370;10.874;2023-07-20T02:41:30;19.70;99.90
9450;DHT22;4763;48.370;10.874;2023-07-20T02:43:57;19.70;99.90
9450;DHT22;4763;48.370;10.874;2023-07-20T02:46:24;19.60;99.90
9450;DHT22;4763;48.370;10.874;2023-07-20T02:48:50;19.60;99.90
9450;DHT22;4763;48.370;10.874;2023-07-20T02:51:17;19.60;99.90
9450;DHT22;4763;48.370;10.874;2023-07-20T02:53:44;19.60;99.90
9450;DHT22;4763;48.370;10.874;2023-07-20T02:56:10;19.60;99.90
9450;DHT22;4763;48.370;10.874;2023-07-20T02:58:41;19.60;99.90
9450;DHT22;4763;48.370;10.874;2023-07-20T03:01:11;19.50;99.90
9450;DHT22;4763;48.370;10.874;2023-07-20T03:03:41;19.50;99.90
9450;DHT22;4763;48.370;10.874;2023-07-20T03:06:12;19.40;99.90
9450;DHT22;4763;48.370;10.874;2023-07-20T03:08:38;19.40;99.90
9450;DHT22;4763;48.370;10.874;2023-07-20T03:11:06;19.40;99.90
9450;DHT22;4763;48.370;10.874;2023-07-20T03:13:33;19.50;99.90
9450;DHT22;4763;48.370;10.874;2023-07-20T03:16:01;19.40;99.90
9450;DHT22;4763;48.370;10.874;2023-07-20T03:18:28;19.40;99.90
9450;DHT22;4763;48.370;10.874;2023-07-20T03:20:55;19.40;99.90
9450;DHT22;4763;48.370;10.874;2023-07-20T03:23:21;19.40;99.90
9450;DHT22;4763;48.370;10.874;2023-07-20T03:25:48;19.30;99.90
9450;DHT22;4763;48.370;10.874;2023-07-20T03:28:15;19.30;99.90
9450;DHT22;4763;48.370;10.874;2023-07-20T03:30:41;19.30;99.90
9450;DHT22;4763;48.370;10.874;2023-07-20T03:33:09;19.40;99.90
9450;DHT22;4763;48.370;10.874;2023-07-20T03:35:36;19.30;99.90
9450;DHT22;4763;48.370;10.874;2023-07-20T03:38:03;19.30;99.90
9450;DHT22;4763;48.370;10.874;2023-07-20T03:40:32;19.30;99.90
9450;DHT22;4763;48.370;10.874;2023-07-20T03:42:59;19.30;99.90
9450;DHT22;4763;48.370;10.874;2023-07-20T03:45:25;19.20;99.90
9450;DHT22;4763;48.370;10.874;2023-07-20T03:47:52;19.30;99.90
9450;DHT22;4763;48.370;10.874;2023-07-20T03:50:20;19.20;99.90
9450;DHT22;4763;48.370;10.874;2023-07-20T03:52:47;19.20;99.90
9450;DHT22;4763;48.370;10.874;2023-07-20T03:55:14;19.20;99.90
9450;DHT22;4763;48.370;10.874;2023-07-20T03:57:42;19.20;99.90
9450;DHT22;4763;48.370;10.874;2023-07-20T04:00:10;19.10;99.90
9450;DHT22;4763;48.370;10.874;2023-07-20T04:02:37;19.10;99.90
9450;DHT22;4763;48.370;10.874;2023-07-20T04:05:04;19.00;99.90
9450;DHT22;4763;48.370;10.874;2023-07-20T04:07:35;19.00;99.90
9450;DHT22;4763;48.370;10.874;2023-07-20T04:10:02;19.00;99.90
9450;DHT22;4763;48.370;10.874;2023-07-20T04:12:28;18.90;99.90
9450;DHT22;4763;48.370;10.874;2023-07-20T04:15:00;18.90;99.90
9450;DHT22;4763;48.370;10.874;2023-07-20T04:17:29;18.80;99.90
9450;DHT22;4763;48.370;10.874;2023-07-20T04:19:57;18.80;99.90
9450;DHT22;4763;48.370;10.874;2023-07-20T04:22:25;18.80;99.90
9450;DHT22;4763;48.370;10.874;2023-07-20T04:24:54;18.80;99.90
9450;DHT22;4763;48.370;10.874;2023-07-20T04:27:22;18.80;99.90
9450;DHT22;4763;48.370;10.874;2023-07-20T04:29:48;18.80;99.90
9450;DHT22;4763;48.370;10.874;2023-07-20T04:32:17;18.80;99.90
9450;DHT22;4763;48.370;10.874;2023-07-20T04:34:44;18.70;99.90
9450;DHT22;4763;48.370;10.874;2023-07-20T04:37:10;18.60;99.90
9450;DHT22;4763;48.370;10.874;2023-07-20T04:39:37;18.60;99.90
9450;DHT22;4763;48.370;10.874;2023-07-20T04:42:06;18.50;99.90
9450;DHT22;4763;48.370;10.874;2023-07-20T04:44:34;18.40;99.90
9450;DHT22;4763;48.370;10.874;2023-07-20T04:47:01;18.30;99.90
9450;DHT22;4763;48.370;10.874;2023-07-20T04:49:28;18.40;99.90
9450;DHT22;4763;48.370;10.874;2023-07-20T04:51:54;18.40;99.90
9450;DHT22;4763;48.370;10.874;2023-07-20T04:54:21;18.40;99.90
9450;DHT22;4763;48.370;10.874;2023-07-20T04:56:48;18.30;99.90
9450;DHT22;4763;48.370;10.874;2023-07-20T04:59:16;18.20;99.90
9450;DHT22;4763;48.370;10.874;2023-07-20T05:01:44;18.20;99.90
9450;DHT22;4763;48.370;10.874;2023-07-20T05:04:11;18.10;99.90
9450;DHT22;4763;48.370;10.874;2023-07-20T05:06:37;18.20;99.90
9450;DHT22;4763;48.370;10.874;2023-07-20T05:09:04;18.20;99.90
9450;DHT22;4763;48.370;10.874;2023-07-20T05:11:33;18.10;99.90
9450;DHT22;4763;48.370;10.874;2023-07-20T05:14:00;18.10;99.90
9450;DHT22;4763;48.370;10.874;2023-07-20T05:16:28;18.10;99.90
9450;DHT22;4763;48.370;10.874;2023-07-20T05:18:55;18.10;99.90
9450;DHT22;4763;48.370;10.874;2023-07-20T05:21:22;18.10;99.90
9450;DHT22;4763;48.370;10.874;2023-07-20T05:23:49;18.10;99.90
9450;DHT22;4763;48.370;10.874;2023-07-20T05:26:16;18.20;99.90
9450;DHT22;4763;48.370;10.874;2023-07-20T05:28:43;18.20;99.90
9450;DHT22;4763;48.370;10.874;2023-07-20T05:31:09;18.30;99.90
9450;DHT22;4763;48.370;10.874;2023-07-20T05:33:37;18.20;99.90
9450;DHT22;4763;48.370;10.874;2023-07-20T05:36:04;18.20;99.90
9450;DHT22;4763;48.370;10.874;2023-07-20T05:38:31;18.20;99.90
9450;DHT22;4763;48.370;10.874;2023-07-20T05:41:00;18.30;99.90
9450;DHT22;4763;48.370;10.874;2023-07-20T05:43:27;18.40;99.90
9450;DHT22;4763;48.370;10.874;2023-07-20T05:45:54;18.50;99.90
9450;DHT22;4763;48.370;10.874;2023-07-20T05:48:20;18.50;99.90
9450;DHT22;4763;48.370;10.874;2023-07-20T05:50:49;18.50;99.90
9450;DHT22;4763;48.370;10.874;2023-07-20T05:53:17;18.70;99.90
9450;DHT22;4763;48.370;10.874;2023-07-20T05:55:43;18.70;99.90
9450;DHT22;4763;48.370;10.874;2023-07-20T05:58:10;18.70;99.90
9450;DHT22;4763;48.370;10.874;2023-07-20T06:00:37;18.70;99.90
9450;DHT22;4763;48.370;10.874;2023-07-20T06:03:04;18.90;99.90
9450;DHT22;4763;48.370;10.874;2023-07-20T06:05:30;19.00;99.90
9450;DHT22;4763;48.370;10.874;2023-07-20T06:07:58;18.90;99.90
9450;DHT22;4763;48.370;10.874;2023-07-20T06:10:26;19.00;99.90
9450;DHT22;4763;48.370;10.874;2023-07-20T06:12:53;19.00;99.90
9450;DHT22;4763;48.370;10.874;2023-07-20T06:15:25;19.10;99.90
9450;DHT22;4763;48.370;10.874;2023-07-20T06:17:53;19.10;99.90
9450;DHT22;4763;48.370;10.874;2023-07-20T06:20:20;19.20;99.90
9450;DHT22;4763;48.370;10.874;2023-07-20T06:22:46;19.20;99.90
9450;DHT22;4763;48.370;10.874;2023-07-20T06:25:14;19.20;99.90
9450;DHT22;4763;48.370;10.874;2023-07-20T06:27:43;19.20;99.90
9450;DHT22;4763;48.370;10.874;2023-07-20T06:30:10;19.20;99.90
9450;DHT22;4763;48.370;10.874;2023-07-20T06:32:38;19.20;99.90
9450;DHT22;4763;48.370;10.874;2023-07-20T06:35:07;19.30;99.90
9450;DHT22;4763;48.370;10.874;2023-07-20T06:37:34;19.50;99.90
9450;DHT22;4763;48.370;10.874;2023-07-20T06:40:01;19.50;99.90
9450;DHT22;4763;48.370;10.874;2023-07-20T06:42:30;19.60;99.90
9450;DHT22;4763;48.370;10.874;2023-07-20T06:44:59;19.60;99.90
9450;DHT22;4763;48.370;10.874;2023-07-20T06:47:25;19.70;99.90
9450;DHT22;4763;48.370;10.874;2023-07-20T06:49:52;19.70;99.90
9450;DHT22;4763;48.370;10.874;2023-07-20T06:52:19;19.80;99.90
9450;DHT22;4763;48.370;10.874;2023-07-20T06:54:46;19.70;99.90
9450;DHT22;4763;48.370;10.874;2023-07-20T06:57:12;19.70;99.90
9450;DHT22;4763;48.370;10.874;2023-07-20T06:59:40;19.70;99.90
9450;DHT22;4763;48.370;10.874;2023-07-20T07:02:07;19.70;99.90
9450;DHT22;4763;48.370;10.874;2023-07-20T07:04:34;19.80;99.90
9450;DHT22;4763;48.370;10.874;2023-07-20T07:07:01;19.90;99.90
9450;DHT22;4763;48.370;10.874;2023-07-20T07:09:29;20.00;99.90
9450;DHT22;4763;48.370;10.874;2023-07-20T07:11:55;19.90;99.90
9450;DHT22;4763;48.370;10.874;2023-07-20T07:14:22;20.00;99.90
9450;DHT22;4763;48.370;10.874;2023-07-20T07:16:52;20.10;99.90
9450;DHT22;4763;48.370;10.874;2023-07-20T07:19:19;20.00;99.90
9450;DHT22;4763;48.370;10.874;2023-07-20T07:21:46;20.10;99.90
9450;DHT22;4763;48.370;10.874;2023-07-20T07:24:12;20.30;99.90
9450;DHT22;4763;48.370;10.874;2023-07-20T07:26:39;20.40;99.90
9450;DHT22;4763;48.370;10.874;2023-07-20T07:29:06;20.40;99.90
9450;DHT22;4763;48.370;10.874;2023-07-20T07:31:34;20.60;99.90
9450;DHT22;4763;48.370;10.874;2023-07-20T07:34:02;20.70;99.90
9450;DHT22;4763;48.370;10.874;2023-07-20T07:36:30;20.60;99.90
9450;DHT22;4763;48.370;10.874;2023-07-20T07:38:56;20.70;99.90
9450;DHT22;4763;48.370;10.874;2023-07-20T07:41:25;20.80;99.90
9450;DHT22;4763;48.370;10.874;2023-07-20T07:43:53;21.00;99.90
9450;DHT22;4763;48.370;10.874;2023-07-20T07:46:20;21.00;99.90
9450;DHT22;4763;48.370;10.874;2023-07-20T07:48:47;21.20;99.90
9450;DHT22;4763;48.370;10.874;2023-07-20T07:51:15;21.40;99.90
9450;DHT22;4763;48.370;10.874;2023-07-20T07:53:42;21.40;99.90
9450;DHT22;4763;48.370;10.874;2023-07-20T07:56:09;21.20;99.90
9450;DHT22;4763;48.370;10.874;2023-07-20T07:58:37;21.20;99.90
9450;DHT22;4763;48.370;10.874;2023-07-20T08:01:04;21.50;99.90
9450;DHT22;4763;48.370;10.874;2023-07-20T08:03:31;21.70;99.90
9450;DHT22;4763;48.370;10.874;2023-07-20T08:05:57;22.00;99.90
9450;DHT22;4763;48.370;10.874;2023-07-20T08:08:26;22.10;99.90
9450;DHT22;4763;48.370;10.874;2023-07-20T08:10:53;22.30;99.90
9450;DHT22;4763;48.370;10.874;2023-07-20T08:13:20;21.90;99.90
9450;DHT22;4763;48.370;10.874;2023-07-20T08:15:50;21.80;99.90
9450;DHT22;4763;48.370;10.874;2023-07-20T08:18:17;21.80;99.90
9450;DHT22;4763;48.370;10.874;2023-07-20T08:20:44;21.90;99.90
9450;DHT22;4763;48.370;10.874;2023-07-20T08:23:11;22.40;99.90
9450;DHT22;4763;48.370;10.874;2023-07-20T08:25:39;22.60;99.90
9450;DHT22;4763;48.370;10.874;2023-07-20T08:28:09;22.90;99.90
9450;DHT22;4763;48.370;10.874;2023-07-20T08:30:41;22.90;99.90
9450;DHT22;4763;48.370;10.874;2023-07-20T08:33:09;22.90;99.90
9450;DHT22;4763;48.370;10.874;2023-07-20T08:35:36;23.10;99.90
9450;DHT22;4763;48.370;10.874;2023-07-20T08:38:03;23.30;99.90
9450;DHT22;4763;48.370;10.874;2023-07-20T08:40:31;23.60;99.90
9450;DHT22;4763;48.370;10.874;2023-07-20T08:43:00;23.60;99.90
9450;DHT22;4763;48.370;10.874;2023-07-20T08:45:27;23.80;99.90
9450;DHT22;4763;48.370;10.874;2023-07-20T08:47:56;23.60;99.90
9450;DHT22;4763;48.370;10.874;2023-07-20T08:50:25;23.70;99.90
9450;DHT22;4763;48.370;10.874;2023-07-20T08:52:52;23.80;99.90
9450;DHT22;4763;48.370;10.874;2023-07-20T08:55:20;23.90;99.90
9450;DHT22;4763;48.370;10.874;2023-07-20T08:57:48;24.10;99.90
9450;DHT22;4763;48.370;10.874;2023-07-20T09:00:19;24.20;99.90
9450;DHT22;4763;48.370;10.874;2023-07-20T09:02:49;24.30;99.90
9450;DHT22;4763;48.370;10.874;2023-07-20T09:05:16;24.20;99.90
9450;DHT22;4763;48.370;10.874;2023-07-20T09:07:43;24.40;99.90
9450;DHT22;4763;48.370;10.874;2023-07-20T09:10:10;24.60;99.90
9450;DHT22;4763;48.370;10.874;2023-07-20T09:12:39;24.50;99.90
9450;DHT22;4763;48.370;10.874;2023-07-20T09:15:07;24.30;99.40
9450;DHT22;4763;48.370;10.874;2023-07-20T09:17:47;23.90;99.10
9450;DHT22;4763;48.370;10.874;2023-07-20T09:20:15;24.10;99.20
9450;DHT22;4763;48.370;10.874;2023-07-20T09:22:43;24.50;98.20
9450;DHT22;4763;48.370;10.874;2023-07-20T09:25:12;24.30;99.60
9450;DHT22;4763;48.370;10.874;2023-07-20T09:27:41;24.50;99.50
9450;DHT22;4763;48.370;10.874;2023-07-20T09:30:09;24.30;99.60
9450;DHT22;4763;48.370;10.874;2023-07-20T09:32:42;24.50;99.50
9450;DHT22;4763;48.370;10.874;2023-07-20T09:35:14;24.60;98.80
9450;DHT22;4763;48.370;10.874;2023-07-20T09:37:48;24.40;99.20
9450;DHT22;4763;48.370;10.874;2023-07-20T09:40:19;24.40;98.90
9450;DHT22;4763;48.370;10.874;2023-07-20T09:42:46;24.40;98.60
9450;DHT22;4763;48.370;10.874;2023-07-20T09:45:14;24.70;99.70
9450;DHT22;4763;48.370;10.874;2023-07-20T09:47:42;24.80;99.50
9450;DHT22;4763;48.370;10.874;2023-07-20T09:50:09;25.10;99.00
9450;DHT22;4763;48.370;10.874;2023-07-20T09:52:41;25.40;98.30
9450;DHT22;4763;48.370;10.874;2023-07-20T09:55:10;25.70;99.90
9450;DHT22;4763;48.370;10.874;2023-07-20T09:57:38;25.70;97.90
9450;DHT22;4763;48.370;10.874;2023-07-20T10:00:06;25.60;97.10
9450;DHT22;4763;48.370;10.874;2023-07-20T10:02:43;25.70;96.60
9450;DHT22;4763;48.370;10.874;2023-07-20T10:05:12;25.60;98.30
9450;DHT22;4763;48.370;10.874;2023-07-20T10:07:44;26.00;96.90
9450;DHT22;4763;48.370;10.874;2023-07-20T10:10:14;26.00;97.10
9450;DHT22;4763;48.370;10.874;2023-07-20T10:12:41;26.20;96.60
9450;DHT22;4763;48.370;10.874;2023-07-20T10:15:13;26.50;96.60
9450;DHT22;4763;48.370;10.874;2023-07-20T10:17:49;26.40;96.00
9450;DHT22;4763;48.370;10.874;2023-07-20T10:20:19;26.20;97.50
9450;DHT22;4763;48.370;10.874;2023-07-20T10:22:49;26.10;97.40
9450;DHT22;4763;48.370;10.874;2023-07-20T10:25:18;26.00;97.40
9450;DHT22;4763;48.370;10.874;2023-07-20T10:27:45;26.20;97.20
9450;DHT22;4763;48.370;10.874;2023-07-20T10:30:13;25.90;97.40
9450;DHT22;4763;48.370;10.874;2023-07-20T10:32:41;25.40;96.80
9450;DHT22;4763;48.370;10.874;2023-07-20T10:35:15;25.90;97.70
9450;DHT22;4763;48.370;10.874;2023-07-20T10:37:49;26.00;98.40
9450;DHT22;4763;48.370;10.874;2023-07-20T10:40:30;25.80;97.30
9450;DHT22;4763;48.370;10.874;2023-07-20T10:43:02;25.80;97.20
9450;DHT22;4763;48.370;10.874;2023-07-20T10:45:40;25.70;98.20
9450;DHT22;4763;48.370;10.874;2023-07-20T10:48:14;25.30;97.00
9450;DHT22;4763;48.370;10.874;2023-07-20T10:50:43;25.50;98.30
9450;DHT22;4763;48.370;10.874;2023-07-20T10:53:11;25.60;98.20
9450;DHT22;4763;48.370;10.874;2023-07-20T10:55:38;25.90;97.70
9450;DHT22;4763;48.370;10.874;2023-07-20T10:58:12;25.50;97.10
9450;DHT22;4763;48.370;10.874;2023-07-20T11:01:00;25.30;97.40
9450;DHT22;4763;48.370;10.874;2023-07-20T11:03:29;25.40;97.60
9450;DHT22;4763;48.370;10.874;2023-07-20T11:05:58;25.50;97.70
9450;DHT22;4763;48.370;10.874;2023-07-20T11:08:39;25.30;98.40
9450;DHT22;4763;48.370;10.874;2023-07-20T11:11:21;25.30;99.00
9450;DHT22;4763;48.370;10.874;2023-07-20T11:13:56;25.10;97.90
9450;DHT22;4763;48.370;10.874;2023-07-20T11:16:38;25.00;97.80
9450;DHT22;4763;48.370;10.874;2023-07-20T11:19:06;25.00;98.30
9450;DHT22;4763;48.370;10.874;2023-07-20T11:21:42;24.90;98.70
9450;DHT22;4763;48.370;10.874;2023-07-20T11:24:09;25.00;98.10
9450;DHT22;4763;48.370;10.874;2023-07-20T11:26:41;25.20;99.60
9450;DHT22;4763;48.370;10.874;2023-07-20T11:29:08;25.30;99.90
9450;DHT22;4763;48.370;10.874;2023-07-20T11:31:37;25.50;98.70
9450;DHT22;4763;48.370;10.874;2023-07-20T11:34:05;25.60;99.10
9450;DHT22;4763;48.370;10.874;2023-07-20T11:36:33;25.40;98.90
9450;DHT22;4763;48.370;10.874;2023-07-20T11:39:02;25.10;98.90
9450;DHT22;4763;48.370;10.874;2023-07-20T11:41:32;25.30;98.10
9450;DHT22;4763;48.370;10.874;2023-07-20T11:43:59;25.50;98.60
9450;DHT22;4763;48.370;10.874;2023-07-20T11:46:27;25.30;99.60
9450;DHT22;4763;48.370;10.874;2023-07-20T11:48:58;25.60;96.80
9450;DHT22;4763;48.370;10.874;2023-07-20T11:51:27;25.60;99.70
9450;DHT22;4763;48.370;10.874;2023-07-20T11:53:54;26.30;99.90
9450;DHT22;4763;48.370;10.874;2023-07-20T11:56:23;26.80;99.40
9450;DHT22;4763;48.370;10.874;2023-07-20T11:58:50;27.00;99.90
9450;DHT22;4763;48.370;10.874;2023-07-20T12:01:17;27.00;96.60
9450;DHT22;4763;48.370;10.874;2023-07-20T12:03:47;27.20;99.90
9450;DHT22;4763;48.370;10.874;2023-07-20T12:06:14;27.40;94.70
9450;DHT22;4763;48.370;10.874;2023-07-20T12:08:42;27.50;96.50
9450;DHT22;4763;48.370;10.874;2023-07-20T12:11:10;27.70;96.40
9450;DHT22;4763;48.370;10.874;2023-07-20T12:13:41;27.50;96.70
9450;DHT22;4763;48.370;10.874;2023-07-20T12:16:12;27.30;95.20
9450;DHT22;4763;48.370;10.874;2023-07-20T12:18:40;27.10;97.60
9450;DHT22;4763;48.370;10.874;2023-07-20T12:21:07;27.40;96.30
9450;DHT22;4763;48.370;10.874;2023-07-20T12:23:35;27.50;97.40
9450;DHT22;4763;48.370;10.874;2023-07-20T12:26:02;27.90;97.10
9450;DHT22;4763;48.370;10.874;2023-07-20T12:28:32;28.20;95.40
9450;DHT22;4763;48.370;10.874;2023-07-20T12:31:00;27.90;95.60
9450;DHT22;4763;48.370;10.874;2023-07-20T12:33:27;28.10;95.30
9450;DHT22;4763;48.370;10.874;2023-07-20T12:35:54;28.20;94.10
9450;DHT22;4763;48.370;10.874;2023-07-20T12:38:25;27.80;93.50
9450;DHT22;4763;48.370;10.874;2023-07-20T12:40:52;27.80;93.90
9450;DHT22;4763;48.370;10.874;2023-07-20T12:43:20;28.10;94.50
9450;DHT22;4763;48.370;10.874;2023-07-20T12:45:47;28.50;94.90
9450;DHT22;4763;48.370;10.874;2023-07-20T12:48:15;28.50;95.00
9450;DHT22;4763;48.370;10.874;2023-07-20T12:50:42;28.50;92.10
9450;DHT22;4763;48.370;10.874;2023-07-20T12:53:09;28.80;91.90
9450;DHT22;4763;48.370;10.874;2023-07-20T12:55:37;28.50;93.50
9450;DHT22;4763;48.370;10.874;2023-07-20T12:58:04;28.70;92.90
9450;DHT22;4763;48.370;10.874;2023-07-20T13:00:33;28.50;93.20
9450;DHT22;4763;48.370;10.874;2023-07-20T13:03:00;28.80;94.30
9450;DHT22;4763;48.370;10.874;2023-07-20T13:05:31;29.20;94.10
9450;DHT22;4763;48.370;10.874;2023-07-20T13:07:58;29.50;90.90
9450;DHT22;4763;48.370;10.874;2023-07-20T13:10:25;29.30;92.70
9450;DHT22;4763;48.370;10.874;2023-07-20T13:12:52;29.20;93.50
9450;DHT22;4763;48.370;10.874;2023-07-20T13:15:19;29.20;94.90
9450;DHT22;4763;48.370;10.874;2023-07-20T13:17:45;29.40;93.40
9450;DHT22;4763;48.370;10.874;2023-07-20T13:20:12;29.60;92.80
9450;DHT22;4763;48.370;10.874;2023-07-20T13:22:41;29.70;92.90
9450;DHT22;4763;48.370;10.874;2023-07-20T13:25:08;30.00;93.60
9450;DHT22;4763;48.370;10.874;2023-07-20T13:27:35;29.70;90.50
9450;DHT22;4763;48.370;10.874;2023-07-20T13:30:02;29.20;90.70
9450;DHT22;4763;48.370;10.874;2023-07-20T13:32:33;29.10;92.10
9450;DHT22;4763;48.370;10.874;2023-07-20T13:35:00;29.00;92.80
9450;DHT22;4763;48.370;10.874;2023-07-20T13:37:27;28.60;91.30
9450;DHT22;4763;48.370;10.874;2023-07-20T13:39:55;28.50;91.00
9450;DHT22;4763;48.370;10.874;2023-07-20T13:42:22;28.60;90.00
9450;DHT22;4763;48.370;10.874;2023-07-20T13:44:49;28.20;91.30
9450;DHT22;4763;48.370;10.874;2023-07-20T13:47:15;28.20;92.80
9450;DHT22;4763;48.370;10.874;2023-07-20T13:49:43;28.40;93.30
9450;DHT22;4763;48.370;10.874;2023-07-20T13:52:10;28.50;92.10
9450;DHT22;4763;48.370;10.874;2023-07-20T13:54:36;28.50;90.70
9450;DHT22;4763;48.370;10.874;2023-07-20T13:57:05;28.50;92.40
9450;DHT22;4763;48.370;10.874;2023-07-20T13:59:32;28.80;90.20
9450;DHT22;4763;48.370;10.874;2023-07-20T14:01:59;29.10;91.40
9450;DHT22;4763;48.370;10.874;2023-07-20T14:04:26;29.50;92.90
9450;DHT22;4763;48.370;10.874;2023-07-20T14:06:52;29.90;91.50
9450;DHT22;4763;48.370;10.874;2023-07-20T14:09:19;29.60;91.60
9450;DHT22;4763;48.370;10.874;2023-07-20T14:11:46;29.30;90.10
9450;DHT22;4763;48.370;10.874;2023-07-20T14:14:14;28.90;90.70
9450;DHT22;4763;48.370;10.874;2023-07-20T14:16:41;28.90;90.70
9450;DHT22;4763;48.370;10.874;2023-07-20T14:19:07;28.10;90.00
9450;DHT22;4763;48.370;10.874;2023-07-20T14:21:35;28.00;92.30
9450;DHT22;4763;48.370;10.874;2023-07-20T14:24:02;28.70;92.60
9450;DHT22;4763;48.370;10.874;2023-07-20T14:26:29;28.80;90.10
9450;DHT22;4763;48.370;10.874;2023-07-20T14:28:56;29.20;90.30
9450;DHT22;4763;48.370;10.874;2023-07-20T14:31:24;29.70;92.20
9450;DHT22;4763;48.370;10.874;2023-07-20T14:33:51;29.80;89.80
9450;DHT22;4763;48.370;10.874;2023-07-20T14:36:18;29.80;88.50
9450;DHT22;4763;48.370;10.874;2023-07-20T14:38:46;29.30;89.60
9450;DHT22;4763;48.370;10.874;2023-07-20T14:41:12;29.30;91.90
9450;DHT22;4763;48.370;10.874;2023-07-20T14:43:39;28.90;88.90
9450;DHT22;4763;48.370;10.874;2023-07-20T14:46:06;28.70;91.50
9450;DHT22;4763;48.370;10.874;2023-07-20T14:48:34;28.90;89.30
9450;DHT22;4763;48.370;10.874;2023-07-20T14:51:01;28.80;90.20
9450;DHT22;4763;48.370;10.874;2023-07-20T14:53:29;28.80;89.40
9450;DHT22;4763;48.370;10.874;2023-07-20T14:55:59;29.30;91.40
9450;DHT22;4763;48.370;10.874;2023-07-20T14:58:26;29.30;90.60
9450;DHT22;4763;48.370;10.874;2023-07-20T15:00:53;29.20;87.50
9450;DHT22;4763;48.370;10.874;2023-07-20T15:03:20;28.90;91.30
9450;DHT22;4763;48.370;10.874;2023-07-20T15:05:48;29.50;90.00
9450;DHT22;4763;48.370;10.874;2023-07-20T15:08:16;29.70;88.30
9450;DHT22;4763;48.370;10.874;2023-07-20T15:10:44;30.00;85.50
9450;DHT22;4763;48.370;10.874;2023-07-20T15:13:12;29.90;86.40
9450;DHT22;4763;48.370;10.874;2023-07-20T15:15:39;29.90;85.40
9450;DHT22;4763;48.370;10.874;2023-07-20T15:18:06;29.70;89.60
9450;DHT22;4763;48.370;10.874;2023-07-20T15:20:32;29.80;87.70
9450;DHT22;4763;48.370;10.874;2023-07-20T15:23:00;29.70;85.30
9450;DHT22;4763;48.370;10.874;2023-07-20T15:25:27;29.90;91.30
9450;DHT22;4763;48.370;10.874;2023-07-20T15:27:54;30.20;85.30
9450;DHT22;4763;48.370;10.874;2023-07-20T15:30:21;30.50;87.30
9450;DHT22;4763;48.370;10.874;2023-07-20T15:32:47;30.80;84.60
9450;DHT22;4763;48.370;10.874;2023-07-20T15:35:14;31.00;88.00
9450;DHT22;4763;48.370;10.874;2023-07-20T15:37:41;30.90;83.30
9450;DHT22;4763;48.370;10.874;2023-07-20T15:40:11;30.60;86.70
9450;DHT22;4763;48.370;10.874;2023-07-20T15:42:38;30.20;86.70
9450;DHT22;4763;48.370;10.874;2023-07-20T15:45:06;29.80;87.00
9450;DHT22;4763;48.370;10.874;2023-07-20T15:47:35;29.40;84.90
9450;DHT22;4763;48.370;10.874;2023-07-20T15:50:02;29.50;86.10
9450;DHT22;4763;48.370;10.874;2023-07-20T15:52:29;29.90;85.40
9450;DHT22;4763;48.370;10.874;2023-07-20T15:54:56;29.80;82.90